Maestro Wilson Fonseca Airport


Codes: SBSN/STM
Name: Maestro Wilson Fonseca Airport
City: Santarem
Country: Brazil
Elevation: 198 ft.

Photos at Maestro Wilson Fonseca Airport


   Photos courtesy of SpottingLog. You can add your own sightings and photos by signing up for a free trial today.



No photos found.

Weather at Maestro Wilson Fonseca Airport


Time (UTC)DescriptionTempratureWindCloud coverageVisibilityPressureHumidity
21-Feb-2024 03:00Few Clouds25°C4 mph, E17%10000m1010hPa80%
21-Feb-2024 06:00Few Clouds24°C4 mph, E17%10000m1009hPa76%
21-Feb-2024 09:00Broken Clouds22°C4 mph, E64%10000m1009hPa78%
21-Feb-2024 12:00Broken Clouds26°C7 mph, E78%10000m1011hPa67%
21-Feb-2024 15:00Overcast Clouds32°C4 mph, NE97%10000m1011hPa47%
21-Feb-2024 18:00Overcast Clouds35°C0 mph, N96%10000m1007hPa38%
21-Feb-2024 21:00Overcast Clouds32°C2 mph, SW100%10000m1006hPa46%
22-Feb-2024 00:00Broken Clouds28°C2 mph, S72%10000m1007hPa58%
22-Feb-2024 03:00Broken Clouds25°C4 mph, SE72%10000m1009hPa69%
22-Feb-2024 06:00Broken Clouds26°C4 mph, E73%10000m1008hPa62%
22-Feb-2024 09:00Few Clouds24°C4 mph, E13%10000m1008hPa74%
22-Feb-2024 12:00Few Clouds27°C9 mph, E11%10000m1011hPa67%
22-Feb-2024 15:00Clear Sky32°C7 mph, E4%10000m1010hPa48%
22-Feb-2024 18:00Clear Sky35°C4 mph, E8%10000m1006hPa39%
22-Feb-2024 21:00Few Clouds34°C4 mph, SE22%10000m1005hPa43%
23-Feb-2024 00:00Few Clouds28°C4 mph, E22%10000m1008hPa62%
23-Feb-2024 03:00Scattered Clouds26°C4 mph, E42%10000m1009hPa71%
23-Feb-2024 06:00Scattered Clouds26°C7 mph, E31%10000m1008hPa77%
23-Feb-2024 09:00Broken Clouds25°C9 mph, E55%10000m1010hPa82%
23-Feb-2024 12:00Scattered Clouds27°C11 mph, E47%10000m1013hPa69%
23-Feb-2024 15:00Scattered Clouds32°C9 mph, E48%10000m1012hPa50%
23-Feb-2024 18:00Scattered Clouds34°C7 mph, E33%10000m1008hPa41%
23-Feb-2024 21:00Scattered Clouds32°C7 mph, E26%10000m1007hPa51%
24-Feb-2024 00:00Light Rain27°C4 mph, E53%10000m1010hPa70%
24-Feb-2024 03:00Overcast Clouds26°C7 mph, E100%10000m1011hPa79%
24-Feb-2024 06:00Overcast Clouds25°C7 mph, E98%10000m1010hPa82%
24-Feb-2024 09:00Overcast Clouds24°C7 mph, E93%10000m1010hPa86%
24-Feb-2024 12:00Overcast Clouds27°C9 mph, E91%10000m1013hPa73%
24-Feb-2024 15:00Broken Clouds32°C9 mph, E55%10000m1012hPa52%
24-Feb-2024 18:00Light Rain33°C4 mph, E55%10000m1008hPa45%
24-Feb-2024 21:00Overcast Clouds31°C4 mph, SE86%10000m1008hPa53%
25-Feb-2024 00:00Light Rain26°C4 mph, E76%10000m1010hPa76%
25-Feb-2024 03:00Light Rain24°C4 mph, E63%10000m1012hPa93%
25-Feb-2024 06:00Light Rain23°C4 mph, E81%10000m1010hPa96%
25-Feb-2024 09:00Light Rain23°C4 mph, E93%10000m1011hPa97%
25-Feb-2024 12:00Overcast Clouds25°C7 mph, E96%10000m1013hPa87%
25-Feb-2024 15:00Overcast Clouds30°C7 mph, E91%10000m1013hPa62%
25-Feb-2024 18:00Broken Clouds33°C7 mph, E75%10000m1008hPa49%
25-Feb-2024 21:00Light Rain30°C4 mph, SE53%10000m1008hPa61%
26-Feb-2024 00:00Light Rain24°C0 mph, SW49%10000m1010hPa89%